Ontinyent, Spain
Current Conditions -  °F | °C
As of 5:30 PM on Sunday 21 Dec 2014 (Local Time) from LEAL Reporting Station
Clear Clear  
Wind Chill: 61°   Ceiling: Unl
Heat Index: 61°   Visibility: 6mi
Dew Point: 50°   Wind: 6mph
Humidity: 68%   Direction: 110°ESE
Pressure: 30.45"   Gusts: NA
Location:  38.82°N, 0.62°W
Report Text: LEAL 211530Z 11005KT 070V140 CAVOK 16/10 Q1031 NOSIG
Loading
Personal Weather Stations






























Interactive Weather Map New forecast layout! Learn more

10-Day Weather Forecast

Advertisements
Track Severe Weather on mobile